sensor_id;sensor_type;location;lat;lon;timestamp;P1;durP1;ratioP1;P2;durP2;ratioP2
80963;SDS011;70425;59.322;13.486;2023-06-22T00:37:32;14.97;;;10.43;;
80963;SDS011;70425;59.322;13.486;2023-06-22T00:40:22;17.23;;;10.27;;
80963;SDS011;70425;59.322;13.486;2023-06-22T00:59:16;19.10;;;9.30;;
80963;SDS011;70425;59.322;13.486;2023-06-22T01:15:42;15.07;;;8.97;;
80963;SDS011;70425;59.322;13.486;2023-06-22T01:38:36;22.90;;;8.50;;
80963;SDS011;70425;59.322;13.486;2023-06-22T01:41:26;16.33;;;8.33;;
80963;SDS011;70425;59.322;13.486;2023-06-22T01:44:17;18.87;;;8.83;;
80963;SDS011;70425;59.322;13.486;2023-06-22T01:47:06;27.77;;;8.63;;
80963;SDS011;70425;59.322;13.486;2023-06-22T02:33:10;14.37;;;6.97;;
80963;SDS011;70425;59.322;13.486;2023-06-22T03:47:09;9.43;;;5.20;;
80963;SDS011;70425;59.322;13.486;2023-06-22T04:18:46;10.77;;;4.63;;
80963;SDS011;70425;59.322;13.486;2023-06-22T04:21:35;9.80;;;4.00;;
80963;SDS011;70425;59.322;13.486;2023-06-22T05:05:30;8.20;;;3.60;;
80963;SDS011;70425;59.322;13.486;2023-06-22T05:11:03;6.73;;;3.37;;
80963;SDS011;70425;59.322;13.486;2023-06-22T05:13:52;12.60;;;3.40;;
80963;SDS011;70425;59.322;13.486;2023-06-22T05:16:41;5.07;;;2.87;;
80963;SDS011;70425;59.322;13.486;2023-06-22T05:19:31;6.17;;;3.60;;
80963;SDS011;70425;59.322;13.486;2023-06-22T05:22:20;7.53;;;3.40;;
80963;SDS011;70425;59.322;13.486;2023-06-22T05:25:09;7.33;;;3.37;;
80963;SDS011;70425;59.322;13.486;2023-06-22T05:28:01;8.13;;;3.20;;
80963;SDS011;70425;59.322;13.486;2023-06-22T05:30:52;7.23;;;3.30;;
80963;SDS011;70425;59.322;13.486;2023-06-22T05:33:41;8.43;;;3.33;;
80963;SDS011;70425;59.322;13.486;2023-06-22T05:36:30;6.03;;;3.20;;
80963;SDS011;70425;59.322;13.486;2023-06-22T05:39:20;6.27;;;3.20;;
80963;SDS011;70425;59.322;13.486;2023-06-22T05:42:19;5.40;;;2.73;;
80963;SDS011;70425;59.322;13.486;2023-06-22T05:48:01;7.23;;;3.00;;
80963;SDS011;70425;59.322;13.486;2023-06-22T05:50:53;5.17;;;3.13;;
80963;SDS011;70425;59.322;13.486;2023-06-22T06:04:08;6.20;;;4.40;;
80963;SDS011;70425;59.322;13.486;2023-06-22T06:31:39;9.63;;;3.47;;
80963;SDS011;70425;59.322;13.486;2023-06-22T06:34:28;7.80;;;4.17;;
80963;SDS011;70425;59.322;13.486;2023-06-22T06:37:17;8.70;;;4.50;;
80963;SDS011;70425;59.322;13.486;2023-06-22T06:40:11;10.73;;;7.33;;
80963;SDS011;70425;59.322;13.486;2023-06-22T06:42:59;9.87;;;4.93;;
80963;SDS011;70425;59.322;13.486;2023-06-22T06:45:48;7.70;;;3.97;;
80963;SDS011;70425;59.322;13.486;2023-06-22T06:48:37;12.57;;;5.87;;
80963;SDS011;70425;59.322;13.486;2023-06-22T06:51:26;8.43;;;6.50;;
80963;SDS011;70425;59.322;13.486;2023-06-22T06:54:15;11.83;;;7.50;;
80963;SDS011;70425;59.322;13.486;2023-06-22T06:57:07;10.80;;;5.17;;
80963;SDS011;70425;59.322;13.486;2023-06-22T06:59:56;10.00;;;5.77;;
80963;SDS011;70425;59.322;13.486;2023-06-22T07:02:45;6.30;;;4.27;;
80963;SDS011;70425;59.322;13.486;2023-06-22T07:05:35;7.97;;;3.07;;
80963;SDS011;70425;59.322;13.486;2023-06-22T07:08:24;6.50;;;4.53;;
80963;SDS011;70425;59.322;13.486;2023-06-22T07:11:12;4.07;;;3.03;;
80963;SDS011;70425;59.322;13.486;2023-06-22T07:14:01;6.70;;;4.50;;
80963;SDS011;70425;59.322;13.486;2023-06-22T07:16:51;8.97;;;4.80;;
80963;SDS011;70425;59.322;13.486;2023-06-22T07:19:39;7.67;;;5.57;;
80963;SDS011;70425;59.322;13.486;2023-06-22T07:22:30;7.83;;;5.13;;
80963;SDS011;70425;59.322;13.486;2023-06-22T07:54:08;7.80;;;4.03;;
80963;SDS011;70425;59.322;13.486;2023-06-22T07:57:25;15.27;;;5.47;;
80963;SDS011;70425;59.322;13.486;2023-06-22T08:00:17;7.77;;;4.80;;
80963;SDS011;70425;59.322;13.486;2023-06-22T08:03:06;6.60;;;5.03;;
80963;SDS011;70425;59.322;13.486;2023-06-22T08:05:54;6.77;;;4.07;;
80963;SDS011;70425;59.322;13.486;2023-06-22T08:08:43;6.30;;;4.63;;
80963;SDS011;70425;59.322;13.486;2023-06-22T08:11:33;3.90;;;2.60;;
80963;SDS011;70425;59.322;13.486;2023-06-22T08:14:23;3.50;;;2.30;;
80963;SDS011;70425;59.322;13.486;2023-06-22T08:34:02;3.73;;;2.40;;
80963;SDS011;70425;59.322;13.486;2023-06-22T08:36:51;3.37;;;2.40;;
80963;SDS011;70425;59.322;13.486;2023-06-22T08:39:40;7.93;;;2.50;;
80963;SDS011;70425;59.322;13.486;2023-06-22T08:42:29;5.10;;;2.50;;
80963;SDS011;70425;59.322;13.486;2023-06-22T08:45:18;4.23;;;2.57;;
80963;SDS011;70425;59.322;13.486;2023-06-22T09:00:04;2.50;;;2.30;;
80963;SDS011;70425;59.322;13.486;2023-06-22T09:16:59;3.73;;;2.50;;
80963;SDS011;70425;59.322;13.486;2023-06-22T09:22:40;3.77;;;2.20;;
80963;SDS011;70425;59.322;13.486;2023-06-22T09:25:28;2.80;;;1.97;;
80963;SDS011;70425;59.322;13.486;2023-06-22T09:28:18;3.80;;;2.20;;
80963;SDS011;70425;59.322;13.486;2023-06-22T10:01:26;2.00;;;1.90;;
80963;SDS011;70425;59.322;13.486;2023-06-22T10:16:05;6.00;;;2.23;;
80963;SDS011;70425;59.322;13.486;2023-06-22T10:21:47;5.83;;;2.20;;
80963;SDS011;70425;59.322;13.486;2023-06-22T10:24:36;2.83;;;2.10;;
80963;SDS011;70425;59.322;13.486;2023-06-22T10:27:26;7.00;;;2.40;;
80963;SDS011;70425;59.322;13.486;2023-06-22T10:30:14;2.53;;;2.20;;
80963;SDS011;70425;59.322;13.486;2023-06-22T10:33:03;4.07;;;1.93;;
80963;SDS011;70425;59.322;13.486;2023-06-22T10:35:53;4.37;;;2.00;;
80963;SDS011;70425;59.322;13.486;2023-06-22T10:38:43;2.63;;;1.90;;
80963;SDS011;70425;59.322;13.486;2023-06-22T10:44:31;2.90;;;2.07;;
80963;SDS011;70425;59.322;13.486;2023-06-22T10:47:19;4.40;;;2.00;;
80963;SDS011;70425;59.322;13.486;2023-06-22T10:50:08;5.30;;;2.10;;
80963;SDS011;70425;59.322;13.486;2023-06-22T10:52:57;3.60;;;2.20;;
80963;SDS011;70425;59.322;13.486;2023-06-22T10:55:46;2.63;;;2.10;;
80963;SDS011;70425;59.322;13.486;2023-06-22T10:58:35;4.67;;;2.20;;
80963;SDS011;70425;59.322;13.486;2023-06-22T11:17:19;4.03;;;2.50;;
80963;SDS011;70425;59.322;13.486;2023-06-22T11:23:00;3.70;;;2.17;;
80963;SDS011;70425;59.322;13.486;2023-06-22T11:28:42;3.00;;;2.20;;
80963;SDS011;70425;59.322;13.486;2023-06-22T11:59:35;1.93;;;1.80;;
80963;SDS011;70425;59.322;13.486;2023-06-22T12:19:04;3.20;;;2.40;;
80963;SDS011;70425;59.322;13.486;2023-06-22T12:24:34;5.63;;;2.20;;
80963;SDS011;70425;59.322;13.486;2023-06-22T12:27:23;2.77;;;1.67;;
80963;SDS011;70425;59.322;13.486;2023-06-22T12:30:12;4.30;;;1.73;;
80963;SDS011;70425;59.322;13.486;2023-06-22T12:33:01;2.63;;;1.60;;
80963;SDS011;70425;59.322;13.486;2023-06-22T12:35:51;3.77;;;3.30;;
80963;SDS011;70425;59.322;13.486;2023-06-22T12:38:40;2.73;;;2.53;;
80963;SDS011;70425;59.322;13.486;2023-06-22T12:41:29;8.23;;;2.90;;
80963;SDS011;70425;59.322;13.486;2023-06-22T12:44:17;2.50;;;2.30;;
80963;SDS011;70425;59.322;13.486;2023-06-22T12:47:07;5.27;;;2.30;;
80963;SDS011;70425;59.322;13.486;2023-06-22T12:49:55;4.83;;;2.30;;
80963;SDS011;70425;59.322;13.486;2023-06-22T12:57:59;1.80;;;1.70;;
80963;SDS011;70425;59.322;13.486;2023-06-22T13:00:48;3.27;;;1.50;;
80963;SDS011;70425;59.322;13.486;2023-06-22T13:03:36;2.00;;;1.80;;
80963;SDS011;70425;59.322;13.486;2023-06-22T13:06:25;3.90;;;3.20;;
80963;SDS011;70425;59.322;13.486;2023-06-22T13:09:14;2.80;;;2.50;;
80963;SDS011;70425;59.322;13.486;2023-06-22T13:12:06;2.97;;;2.67;;
80963;SDS011;70425;59.322;13.486;2023-06-22T13:14:56;5.87;;;3.23;;
80963;SDS011;70425;59.322;13.486;2023-06-22T13:17:46;8.90;;;4.10;;
80963;SDS011;70425;59.322;13.486;2023-06-22T13:20:35;5.20;;;4.07;;
80963;SDS011;70425;59.322;13.486;2023-06-22T13:23:24;3.97;;;2.50;;
80963;SDS011;70425;59.322;13.486;2023-06-22T13:39:52;2.13;;;1.93;;
80963;SDS011;70425;59.322;13.486;2023-06-22T14:36:59;5.03;;;1.60;;
80963;SDS011;70425;59.322;13.486;2023-06-22T15:04:14;1.40;;;1.30;;
80963;SDS011;70425;59.322;13.486;2023-06-22T15:28:42;1.97;;;1.50;;
80963;SDS011;70425;59.322;13.486;2023-06-22T17:18:06;3.43;;;2.20;;
80963;SDS011;70425;59.322;13.486;2023-06-22T19:13:48;5.40;;;2.80;;
80963;SDS011;70425;59.322;13.486;2023-06-22T19:16:40;5.07;;;3.10;;
80963;SDS011;70425;59.322;13.486;2023-06-22T19:19:30;5.97;;;3.13;;
80963;SDS011;70425;59.322;13.486;2023-06-22T19:25:48;5.10;;;3.20;;
80963;SDS011;70425;59.322;13.486;2023-06-22T19:29:02;8.67;;;3.20;;
80963;SDS011;70425;59.322;13.486;2023-06-22T19:31:59;4.80;;;3.30;;
80963;SDS011;70425;59.322;13.486;2023-06-22T19:34:48;5.10;;;3.40;;
80963;SDS011;70425;59.322;13.486;2023-06-22T19:37:47;6.50;;;3.20;;
80963;SDS011;70425;59.322;13.486;2023-06-22T19:40:43;6.00;;;3.17;;
80963;SDS011;70425;59.322;13.486;2023-06-22T19:43:53;6.57;;;3.43;;
80963;SDS011;70425;59.322;13.486;2023-06-22T19:46:43;6.60;;;3.67;;
80963;SDS011;70425;59.322;13.486;2023-06-22T19:49:33;6.73;;;3.60;;
80963;SDS011;70425;59.322;13.486;2023-06-22T20:23:03;7.93;;;4.27;;
80963;SDS011;70425;59.322;13.486;2023-06-22T21:05:32;11.83;;;4.90;;
80963;SDS011;70425;59.322;13.486;2023-06-22T21:44:00;11.17;;;5.03;;
80963;SDS011;70425;59.322;13.486;2023-06-22T22:00:23;14.03;;;5.73;;
80963;SDS011;70425;59.322;13.486;2023-06-22T22:03:12;10.13;;;5.17;;
80963;SDS011;70425;59.322;13.486;2023-06-22T22:06:01;10.53;;;5.07;;
80963;SDS011;70425;59.322;13.486;2023-06-22T22:08:51;12.70;;;5.27;;
80963;SDS011;70425;59.322;13.486;2023-06-22T22:11:40;11.47;;;5.30;;
80963;SDS011;70425;59.322;13.486;2023-06-22T22:14:31;9.57;;;5.33;;
80963;SDS011;70425;59.322;13.486;2023-06-22T22:17:19;11.70;;;5.40;;
80963;SDS011;70425;59.322;13.486;2023-06-22T22:20:09;15.43;;;5.70;;
80963;SDS011;70425;59.322;13.486;2023-06-22T22:22:59;13.57;;;5.30;;
80963;SDS011;70425;59.322;13.486;2023-06-22T22:25:49;13.20;;;5.83;;
80963;SDS011;70425;59.322;13.486;2023-06-22T22:28:38;10.10;;;5.50;;
80963;SDS011;70425;59.322;13.486;2023-06-22T22:31:26;15.87;;;5.60;;
80963;SDS011;70425;59.322;13.486;2023-06-22T22:34:16;17.13;;;5.00;;
80963;SDS011;70425;59.322;13.486;2023-06-22T22:37:22;9.87;;;5.60;;
80963;SDS011;70425;59.322;13.486;2023-06-22T22:40:12;15.23;;;5.90;;
80963;SDS011;70425;59.322;13.486;2023-06-22T22:43:00;20.23;;;6.90;;
80963;SDS011;70425;59.322;13.486;2023-06-22T22:57:45;13.60;;;8.10;;
80963;SDS011;70425;59.322;13.486;2023-06-22T23:43:57;14.67;;;7.83;;
80963;SDS011;70425;59.322;13.486;2023-06-22T23:46:46;15.00;;;7.10;;
80963;SDS011;70425;59.322;13.486;2023-06-22T23:49:37;13.00;;;7.00;;
80963;SDS011;70425;59.322;13.486;2023-06-22T23:52:26;15.00;;;7.00;;
80963;SDS011;70425;59.322;13.486;2023-06-22T23:55:16;13.63;;;6.93;;
80963;SDS011;70425;59.322;13.486;2023-06-22T23:58:08;14.63;;;6.90;;
